createdAt,value
2022-07-25T00:00:04.109Z,20.07
2022-07-25T00:01:04.098Z,20.07
2022-07-25T00:02:04.224Z,20.06
2022-07-25T00:03:04.070Z,20.06
2022-07-25T00:04:04.581Z,20.03
2022-07-25T00:05:04.052Z,20.03
2022-07-25T00:06:07.062Z,20.00
2022-07-25T00:07:08.070Z,20.00
2022-07-25T00:08:04.003Z,19.96
2022-07-25T00:09:04.002Z,19.95
2022-07-25T00:10:03.981Z,19.92
2022-07-25T00:11:03.966Z,19.88
2022-07-25T00:12:03.978Z,19.85
2022-07-25T00:13:03.967Z,19.84
2022-07-25T00:14:04.408Z,19.81
2022-07-25T00:15:03.914Z,19.79
2022-07-25T00:16:03.932Z,19.79
2022-07-25T00:17:03.886Z,19.76
2022-07-25T00:18:03.899Z,19.74
2022-07-25T00:19:03.861Z,19.71
2022-07-25T00:20:03.842Z,19.73
2022-07-25T00:21:03.833Z,19.71
2022-07-25T00:22:03.817Z,19.71
2022-07-25T00:23:03.860Z,19.67
2022-07-25T00:24:04.309Z,19.66
2022-07-25T00:25:03.778Z,19.66
2022-07-25T00:26:06.759Z,19.63
2022-07-25T00:27:06.769Z,19.63
2022-07-25T00:28:03.734Z,19.59
2022-07-25T00:29:03.770Z,19.59
2022-07-25T00:30:03.702Z,19.55
2022-07-25T00:31:03.791Z,19.52
2022-07-25T00:32:03.682Z,19.51
2022-07-25T00:33:03.665Z,19.49
2022-07-25T00:34:04.010Z,19.45
2022-07-25T00:35:03.666Z,19.45
2022-07-25T00:36:03.624Z,19.41
2022-07-25T00:37:03.614Z,19.44
2022-07-25T00:38:03.597Z,19.40
2022-07-25T00:39:03.615Z,19.39
2022-07-25T00:40:03.576Z,19.37
2022-07-25T00:41:03.569Z,19.36
2022-07-25T00:42:03.547Z,19.33
2022-07-25T00:43:03.528Z,19.33
2022-07-25T00:44:03.899Z,19.34
2022-07-25T00:45:03.535Z,19.34
2022-07-25T00:46:06.554Z,19.30
2022-07-25T00:47:06.491Z,19.33
2022-07-25T00:48:03.470Z,19.29
2022-07-25T00:49:03.510Z,19.27
2022-07-25T00:50:03.462Z,19.27
2022-07-25T00:51:03.459Z,19.27
2022-07-25T00:52:10.912Z,19.24
2022-07-25T00:53:03.403Z,19.26
2022-07-25T00:54:03.804Z,19.26
2022-07-25T00:55:03.373Z,19.26
2022-07-25T00:56:03.358Z,19.24
2022-07-25T00:57:03.363Z,19.22
2022-07-25T00:58:03.328Z,19.19
2022-07-25T00:59:03.324Z,19.18
2022-07-25T01:00:03.346Z,19.18
2022-07-25T01:01:03.305Z,19.16
2022-07-25T01:02:03.795Z,19.15
2022-07-25T01:03:03.323Z,19.14
2022-07-25T01:04:03.586Z,19.14
2022-07-25T01:05:03.241Z,19.12
2022-07-25T01:06:06.240Z,19.11
2022-07-25T01:07:06.220Z,19.12
2022-07-25T01:08:03.201Z,19.08
2022-07-25T01:09:03.180Z,19.04
2022-07-25T01:10:03.191Z,19.00
2022-07-25T01:11:03.192Z,19.00
2022-07-25T01:12:03.141Z,18.99
2022-07-25T01:13:03.131Z,18.98
2022-07-25T01:14:03.343Z,18.98
2022-07-25T01:15:03.105Z,18.96
2022-07-25T01:16:03.151Z,18.95
2022-07-25T01:17:03.073Z,18.95
2022-07-25T01:18:03.069Z,18.93
2022-07-25T01:19:03.047Z,18.92
2022-07-25T01:20:03.065Z,18.92
2022-07-25T01:21:03.025Z,18.92
2022-07-25T01:22:03.004Z,18.89
2022-07-25T01:23:03.002Z,18.89
2022-07-25T01:24:03.275Z,18.88
2022-07-25T01:25:02.969Z,18.88
2022-07-25T01:26:05.980Z,18.84
2022-07-25T01:27:05.987Z,18.81
2022-07-25T01:28:02.953Z,18.80
2022-07-25T01:29:02.909Z,18.80
2022-07-25T01:30:02.907Z,18.78
2022-07-25T01:31:03.075Z,18.77
2022-07-25T01:32:02.875Z,18.75
2022-07-25T01:33:06.847Z,18.77
2022-07-25T01:34:02.946Z,18.73
2022-07-25T01:35:02.861Z,18.74
2022-07-25T01:36:02.814Z,18.73
2022-07-25T01:37:02.834Z,18.73
2022-07-25T01:38:02.792Z,18.70
2022-07-25T01:39:02.782Z,18.68
2022-07-25T01:40:02.763Z,18.68
2022-07-25T01:41:02.752Z,18.66
2022-07-25T01:42:02.764Z,18.65
2022-07-25T01:43:02.725Z,18.65
2022-07-25T01:44:02.941Z,18.63
2022-07-25T01:45:02.698Z,18.63
2022-07-25T01:46:05.775Z,18.62
2022-07-25T01:47:05.726Z,18.62
2022-07-25T01:48:02.676Z,18.60
2022-07-25T01:49:02.880Z,18.60
2022-07-25T01:50:02.630Z,18.59
2022-07-25T01:51:02.617Z,18.56
2022-07-25T01:52:02.614Z,18.55
2022-07-25T01:53:02.589Z,18.50
2022-07-25T01:54:02.851Z,18.50
2022-07-25T01:55:02.589Z,18.49
2022-07-25T01:56:02.896Z,18.47
2022-07-25T01:57:02.534Z,18.44
2022-07-25T01:58:02.555Z,18.45
2022-07-25T01:59:02.542Z,18.44
2022-07-25T02:00:02.492Z,18.43
2022-07-25T02:01:02.611Z,18.40
2022-07-25T02:02:02.559Z,18.40
2022-07-25T02:03:02.458Z,18.40
2022-07-25T02:04:02.525Z,18.37
2022-07-25T02:05:02.556Z,18.35
2022-07-25T02:06:05.415Z,18.34
2022-07-25T02:07:05.418Z,18.35
2022-07-25T02:08:02.387Z,18.33
2022-07-25T02:09:02.373Z,18.34
2022-07-25T02:10:02.386Z,18.33
2022-07-25T02:11:02.347Z,18.33
2022-07-25T02:12:02.332Z,18.33
2022-07-25T02:13:02.321Z,18.31
2022-07-25T02:14:02.519Z,18.28
2022-07-25T02:15:02.461Z,18.28
2022-07-25T02:16:02.288Z,18.26
2022-07-25T02:17:02.295Z,18.23
2022-07-25T02:18:02.261Z,18.22
2022-07-25T02:19:02.240Z,18.22
2022-07-25T02:20:02.263Z,18.20
2022-07-25T02:21:02.240Z,18.19
2022-07-25T02:22:02.222Z,18.16
2022-07-25T02:23:02.186Z,18.18
2022-07-25T02:24:02.307Z,18.18
2022-07-25T02:25:02.154Z,18.15
2022-07-25T02:26:05.196Z,18.15
2022-07-25T02:27:05.146Z,18.16
2022-07-25T02:28:02.114Z,18.13
2022-07-25T02:29:02.105Z,18.10
2022-07-25T02:30:02.097Z,18.10
2022-07-25T02:31:02.100Z,18.08
2022-07-25T02:32:02.096Z,18.05
2022-07-25T02:33:02.053Z,18.07
2022-07-25T02:34:02.038Z,18.05
2022-07-25T02:35:02.030Z,18.04
2022-07-25T02:36:02.013Z,18.04
2022-07-25T02:37:02.049Z,18.03
2022-07-25T02:38:01.990Z,18.01
2022-07-25T02:39:01.970Z,18.01
2022-07-25T02:40:01.964Z,18.01
2022-07-25T02:41:01.941Z,18.00
2022-07-25T02:42:01.931Z,17.98
2022-07-25T02:43:01.951Z,18.00
2022-07-25T02:44:01.904Z,17.98
2022-07-25T02:45:01.888Z,17.97
2022-07-25T02:46:04.966Z,17.97
2022-07-25T02:47:04.880Z,17.98
2022-07-25T02:48:01.912Z,17.97
2022-07-25T02:49:01.977Z,17.97
2022-07-25T02:50:01.827Z,17.95
2022-07-25T02:51:01.806Z,17.95
2022-07-25T02:52:01.794Z,17.95
2022-07-25T02:53:01.779Z,17.95
2022-07-25T02:54:01.935Z,17.94
2022-07-25T02:55:06.097Z,17.95
2022-07-25T02:56:02.747Z,17.95
2022-07-25T02:57:01.730Z,17.94
2022-07-25T02:58:01.721Z,17.92
2022-07-25T02:59:01.702Z,17.95
2022-07-25T03:00:01.738Z,17.94
2022-07-25T03:01:01.745Z,17.94
2022-07-25T03:02:01.664Z,17.94
2022-07-25T03:03:01.650Z,17.94
2022-07-25T03:04:01.702Z,17.92
2022-07-25T03:05:01.620Z,17.90
2022-07-25T03:06:04.650Z,17.90
2022-07-25T03:07:04.612Z,17.92
2022-07-25T03:08:01.581Z,17.90
2022-07-25T03:09:01.563Z,17.90
2022-07-25T03:10:01.567Z,17.90
2022-07-25T03:11:01.546Z,17.90
2022-07-25T03:12:01.563Z,17.87
2022-07-25T03:13:01.512Z,17.89
2022-07-25T03:14:01.564Z,17.87
2022-07-25T03:15:01.484Z,17.86
2022-07-25T03:16:01.481Z,17.87
2022-07-25T03:17:02.606Z,17.87
2022-07-25T03:18:01.453Z,17.87
2022-07-25T03:19:01.435Z,17.87
2022-07-25T03:20:01.445Z,17.85
2022-07-25T03:21:01.443Z,17.86
2022-07-25T03:22:01.454Z,17.83
2022-07-25T03:23:01.377Z,17.83
2022-07-25T03:24:01.425Z,17.82
2022-07-25T03:25:01.367Z,17.82
2022-07-25T03:26:04.349Z,17.79
2022-07-25T03:27:04.373Z,17.80
2022-07-25T03:28:01.341Z,17.79
2022-07-25T03:29:01.300Z,17.78
2022-07-25T03:30:01.291Z,17.76
2022-07-25T03:31:01.302Z,17.74
2022-07-25T03:32:01.328Z,17.74
2022-07-25T03:33:01.252Z,17.74
2022-07-25T03:34:01.234Z,17.74
2022-07-25T03:35:01.234Z,17.74
2022-07-25T03:36:01.244Z,17.74
2022-07-25T03:37:01.214Z,17.76
2022-07-25T03:38:01.189Z,17.76
2022-07-25T03:39:01.164Z,17.79
2022-07-25T03:40:01.155Z,17.79
2022-07-25T03:41:01.138Z,17.83
2022-07-25T03:42:01.156Z,17.85
2022-07-25T03:43:01.107Z,17.86
2022-07-25T03:44:01.097Z,17.89
2022-07-25T03:45:01.097Z,17.94
2022-07-25T03:46:04.158Z,17.97
2022-07-25T03:47:04.128Z,18.03
2022-07-25T03:48:01.051Z,18.04
2022-07-25T03:49:01.094Z,18.07
2022-07-25T03:50:01.027Z,18.08
2022-07-25T03:51:06.404Z,18.15
2022-07-25T03:52:01.995Z,18.16
2022-07-25T03:53:01.030Z,18.19
2022-07-25T03:54:00.971Z,18.23
2022-07-25T03:55:00.955Z,18.28
2022-07-25T03:56:00.943Z,18.29
2022-07-25T03:57:00.922Z,18.35
2022-07-25T03:58:00.912Z,18.37
2022-07-25T03:59:00.923Z,18.43
2022-07-25T04:00:00.890Z,18.45
2022-07-25T04:01:00.905Z,18.50
2022-07-25T04:02:00.937Z,18.52
2022-07-25T04:03:00.842Z,18.56
2022-07-25T04:04:00.834Z,18.60
2022-07-25T04:05:00.818Z,18.65
2022-07-25T04:06:03.805Z,18.66
2022-07-25T04:07:03.825Z,18.73
2022-07-25T04:08:00.777Z,18.75
2022-07-25T04:09:00.768Z,18.80
2022-07-25T04:10:00.766Z,18.84
2022-07-25T04:11:00.735Z,18.89
2022-07-25T04:12:00.762Z,18.92
2022-07-25T04:13:00.716Z,18.96
2022-07-25T04:14:00.699Z,19.02
2022-07-25T04:15:00.681Z,19.04
2022-07-25T04:16:00.677Z,19.08
2022-07-25T04:17:00.775Z,19.11
2022-07-25T04:18:00.685Z,19.15
2022-07-25T04:19:00.638Z,19.19
2022-07-25T04:20:00.611Z,19.22
2022-07-25T04:21:00.650Z,19.27
2022-07-25T04:22:00.595Z,19.30
2022-07-25T04:23:00.584Z,19.33
2022-07-25T04:24:00.566Z,19.37
2022-07-25T04:25:00.556Z,19.41
2022-07-25T04:26:03.563Z,19.51
2022-07-25T04:27:03.590Z,19.63
2022-07-25T04:28:00.519Z,19.74
2022-07-25T04:29:00.495Z,20.10
2022-07-25T04:30:00.485Z,20.60
2022-07-25T04:31:00.472Z,21.17
2022-07-25T04:32:00.524Z,21.55
2022-07-25T04:33:00.468Z,21.80
2022-07-25T04:34:00.427Z,21.92
2022-07-25T04:35:00.418Z,21.91
2022-07-25T04:36:00.406Z,21.82
2022-07-25T04:37:00.411Z,21.62
2022-07-25T04:38:00.398Z,21.46
2022-07-25T04:39:00.381Z,21.35
2022-07-25T04:40:00.349Z,21.25
2022-07-25T04:41:00.332Z,21.27
2022-07-25T04:42:00.320Z,21.35
2022-07-25T04:43:00.338Z,21.54
2022-07-25T04:44:00.301Z,21.75
2022-07-25T04:45:00.279Z,21.80
2022-07-25T04:46:03.317Z,21.82
2022-07-25T04:47:03.295Z,21.95
2022-07-25T04:48:00.234Z,22.04
2022-07-25T04:49:00.299Z,22.11
2022-07-25T04:50:00.263Z,22.17
2022-07-25T04:51:00.198Z,22.26
2022-07-25T04:52:00.344Z,22.41
2022-07-25T04:53:00.185Z,22.60
2022-07-25T04:54:00.158Z,22.75
2022-07-25T04:55:00.136Z,22.94
2022-07-25T04:56:00.127Z,23.23
2022-07-25T04:57:00.125Z,23.61
2022-07-25T04:58:00.269Z,23.93
2022-07-25T04:59:06.181Z,24.05
2022-07-25T05:00:01.085Z,23.95
2022-07-25T05:01:00.089Z,23.83
2022-07-25T05:02:00.142Z,23.73
2022-07-25T05:03:00.033Z,23.61
2022-07-25T05:04:00.053Z,23.83
2022-07-25T05:05:00.010Z,24.01
2022-07-25T05:06:03.093Z,24.11
2022-07-25T05:07:02.997Z,24.18
2022-07-25T05:07:59.985Z,24.05
2022-07-25T05:08:59.954Z,23.77
2022-07-25T05:10:00.146Z,23.59
2022-07-25T05:10:59.935Z,23.47
2022-07-25T05:11:59.925Z,23.28
2022-07-25T05:12:59.904Z,23.25
2022-07-25T05:13:59.895Z,23.24
2022-07-25T05:14:59.895Z,23.34
2022-07-25T05:15:59.962Z,23.31
2022-07-25T05:16:59.857Z,23.37
2022-07-25T05:17:59.845Z,23.76
2022-07-25T05:18:59.828Z,24.32
2022-07-25T05:19:59.879Z,24.86
2022-07-25T05:20:59.805Z,25.31
2022-07-25T05:21:59.789Z,25.55
2022-07-25T05:22:59.781Z,25.46
2022-07-25T05:23:59.772Z,25.25
2022-07-25T05:24:59.762Z,25.04
2022-07-25T05:26:02.814Z,24.81
2022-07-25T05:27:02.746Z,24.73
2022-07-25T05:27:59.721Z,24.65
2022-07-25T05:28:59.703Z,24.60
2022-07-25T05:29:59.693Z,24.65
2022-07-25T05:30:59.676Z,24.74
2022-07-25T05:31:59.749Z,24.80
2022-07-25T05:32:59.638Z,24.76
2022-07-25T05:33:59.666Z,24.57
2022-07-25T05:34:59.617Z,24.36
2022-07-25T05:35:59.598Z,24.18
2022-07-25T05:36:59.579Z,24.28
2022-07-25T05:37:59.569Z,24.85
2022-07-25T05:38:59.568Z,25.18
2022-07-25T05:39:59.570Z,25.53
2022-07-25T05:40:59.530Z,25.73
2022-07-25T05:41:59.520Z,26.25
2022-07-25T05:43:03.221Z,26.95
2022-07-25T05:43:59.488Z,27.52
2022-07-25T05:44:59.473Z,27.86
2022-07-25T05:46:02.462Z,27.83
2022-07-25T05:47:02.665Z,28.12
2022-07-25T05:47:59.492Z,28.63
2022-07-25T05:48:59.451Z,28.78
2022-07-25T05:49:59.412Z,28.51
2022-07-25T05:50:59.394Z,28.29
2022-07-25T05:51:59.384Z,28.12
2022-07-25T05:52:59.371Z,28.48
2022-07-25T05:53:59.377Z,28.63
2022-07-25T05:54:59.349Z,28.47
2022-07-25T05:55:59.327Z,28.22
2022-07-25T05:56:59.306Z,27.60
2022-07-25T05:57:59.329Z,27.70
2022-07-25T05:58:59.282Z,27.68
2022-07-25T05:59:59.277Z,27.86
2022-07-25T06:00:59.268Z,28.30
2022-07-25T06:01:59.314Z,28.25
2022-07-25T06:02:59.460Z,28.23
2022-07-25T06:03:59.270Z,28.52
2022-07-25T06:04:59.212Z,28.17
2022-07-25T06:06:02.191Z,27.92
2022-07-25T06:07:02.192Z,27.49
2022-07-25T06:07:59.164Z,27.48
2022-07-25T06:08:59.145Z,27.29
2022-07-25T06:09:59.164Z,27.58
2022-07-25T06:10:59.122Z,27.96
2022-07-25T06:12:01.117Z,28.02
2022-07-25T06:12:59.094Z,27.59
2022-07-25T06:13:59.106Z,27.64
2022-07-25T06:14:59.066Z,27.45
2022-07-25T06:15:59.085Z,27.63
2022-07-25T06:16:59.038Z,27.90
2022-07-25T06:17:59.029Z,28.42
2022-07-25T06:18:59.051Z,28.88
2022-07-25T06:19:59.012Z,29.16
2022-07-25T06:20:58.990Z,28.98
2022-07-25T06:21:58.979Z,28.78
2022-07-25T06:22:58.959Z,28.60
2022-07-25T06:23:58.951Z,28.32
2022-07-25T06:24:58.977Z,28.19
2022-07-25T06:26:01.922Z,28.10
2022-07-25T06:27:01.929Z,28.02
2022-07-25T06:27:58.904Z,27.86
2022-07-25T06:28:58.891Z,27.59
2022-07-25T06:29:58.914Z,27.33
2022-07-25T06:30:58.914Z,27.21
2022-07-25T06:31:58.921Z,27.20
2022-07-25T06:32:58.842Z,27.21
2022-07-25T06:33:58.886Z,26.92
2022-07-25T06:34:59.036Z,26.63
2022-07-25T06:35:58.789Z,26.58
2022-07-25T06:36:58.778Z,26.44
2022-07-25T06:37:58.783Z,26.33
2022-07-25T06:38:58.759Z,26.26
2022-07-25T06:39:58.762Z,26.22
2022-07-25T06:40:58.734Z,26.18
2022-07-25T06:41:58.712Z,26.18
2022-07-25T06:42:58.701Z,26.13
2022-07-25T06:43:58.720Z,26.16
2022-07-25T06:44:58.694Z,26.25
2022-07-25T06:46:01.665Z,26.31
2022-07-25T06:47:01.709Z,26.41
2022-07-25T06:47:58.635Z,26.41
2022-07-25T06:48:58.708Z,26.43
2022-07-25T06:49:58.621Z,26.47
2022-07-25T06:50:58.596Z,26.41
2022-07-25T06:51:58.586Z,26.34
2022-07-25T06:52:58.578Z,26.34
2022-07-25T06:53:58.556Z,26.36
2022-07-25T06:54:58.574Z,26.26
2022-07-25T06:55:58.530Z,26.29
2022-07-25T06:56:58.552Z,26.28
2022-07-25T06:57:58.499Z,26.33
2022-07-25T06:58:58.490Z,26.43
2022-07-25T06:59:58.487Z,26.55
2022-07-25T07:00:58.590Z,26.59
2022-07-25T07:01:58.452Z,26.68
2022-07-25T07:02:58.639Z,26.66
2022-07-25T07:03:58.422Z,26.62
2022-07-25T07:04:58.413Z,26.59
2022-07-25T07:06:01.444Z,26.56
2022-07-25T07:07:01.417Z,26.60
2022-07-25T07:07:58.373Z,26.56
2022-07-25T07:08:58.394Z,26.63
2022-07-25T07:09:58.353Z,26.63
2022-07-25T07:10:58.336Z,26.58
2022-07-25T07:11:58.316Z,26.58
2022-07-25T07:12:58.318Z,26.65
2022-07-25T07:13:58.325Z,26.74
2022-07-25T07:14:58.291Z,26.83
2022-07-25T07:15:58.318Z,26.92
2022-07-25T07:16:58.260Z,27.02
2022-07-25T07:17:58.256Z,27.14
2022-07-25T07:18:58.281Z,27.17
2022-07-25T07:19:58.252Z,27.21
2022-07-25T07:20:58.214Z,27.29
2022-07-25T07:21:58.193Z,27.30
2022-07-25T07:22:58.182Z,27.27
2022-07-25T07:23:58.197Z,27.25
2022-07-25T07:24:58.182Z,27.25
2022-07-25T07:26:01.146Z,27.21
2022-07-25T07:27:01.143Z,27.33
2022-07-25T07:27:58.168Z,27.42
2022-07-25T07:28:58.127Z,27.58
2022-07-25T07:29:58.089Z,27.70
2022-07-25T07:31:15.578Z,27.80
2022-07-25T07:31:59.095Z,27.89
2022-07-25T07:32:58.066Z,27.89
2022-07-25T07:33:58.093Z,27.85
2022-07-25T07:34:58.019Z,27.74
2022-07-25T07:35:58.041Z,27.68
2022-07-25T07:36:58.004Z,27.67
2022-07-25T07:37:57.981Z,27.67
2022-07-25T07:38:57.972Z,27.71
2022-07-25T07:39:58.001Z,27.73
2022-07-25T07:40:57.972Z,27.78
2022-07-25T07:41:57.936Z,27.82
2022-07-25T07:42:57.921Z,27.86
2022-07-25T07:43:57.909Z,27.90
2022-07-25T07:44:57.945Z,27.90
2022-07-25T07:46:01.547Z,27.92
2022-07-25T07:47:00.929Z,27.93
2022-07-25T07:47:57.850Z,27.92
2022-07-25T07:48:57.911Z,27.87
2022-07-25T07:49:57.826Z,27.86
2022-07-25T07:50:57.837Z,27.86
2022-07-25T07:51:57.800Z,27.83
2022-07-25T07:52:57.787Z,27.75
2022-07-25T07:53:57.770Z,27.73
2022-07-25T07:54:59.394Z,27.64
2022-07-25T07:55:57.799Z,27.63
2022-07-25T07:56:57.752Z,27.60
2022-07-25T07:57:57.721Z,27.59
2022-07-25T07:58:57.715Z,27.55
2022-07-25T07:59:57.700Z,27.52
2022-07-25T08:00:57.682Z,27.55
2022-07-25T08:01:57.819Z,27.54
2022-07-25T08:02:57.801Z,27.54
2022-07-25T08:03:57.646Z,27.58
2022-07-25T08:04:57.635Z,27.58
2022-07-25T08:06:00.639Z,27.58
2022-07-25T08:07:00.676Z,27.65
2022-07-25T08:07:57.602Z,27.70
2022-07-25T08:08:57.582Z,27.73
2022-07-25T08:09:57.566Z,27.75
2022-07-25T08:10:59.123Z,27.78
2022-07-25T08:11:57.530Z,27.75
2022-07-25T08:12:57.560Z,27.73
2022-07-25T08:13:57.548Z,27.73
2022-07-25T08:14:57.501Z,27.75
2022-07-25T08:15:57.570Z,27.77
2022-07-25T08:16:57.472Z,27.77
2022-07-25T08:17:57.460Z,27.82
2022-07-25T08:18:57.503Z,27.93
2022-07-25T08:20:09.412Z,28.02
2022-07-25T08:20:58.424Z,28.10
2022-07-25T08:21:57.404Z,28.14
2022-07-25T08:22:57.399Z,28.12
2022-07-25T08:23:57.390Z,28.15
2022-07-25T08:24:57.397Z,28.17
2022-07-25T08:26:00.379Z,28.25
2022-07-25T08:27:00.364Z,28.29
2022-07-25T08:27:57.328Z,28.37
2022-07-25T08:29:17.639Z,28.47
2022-07-25T08:29:58.305Z,28.49
2022-07-25T08:30:57.353Z,28.57
2022-07-25T08:31:57.270Z,28.66
2022-07-25T08:32:57.263Z,28.76
2022-07-25T08:33:57.260Z,28.86
2022-07-25T08:34:57.260Z,28.94
2022-07-25T08:35:57.222Z,28.96
2022-07-25T08:36:57.223Z,28.98
2022-07-25T08:37:57.197Z,28.98
2022-07-25T08:38:57.236Z,28.88
2022-07-25T08:39:57.190Z,29.02
2022-07-25T08:40:57.162Z,29.10
2022-07-25T08:41:57.143Z,29.01
2022-07-25T08:42:57.139Z,28.93
2022-07-25T08:43:57.117Z,28.88
2022-07-25T08:44:57.168Z,28.88
2022-07-25T08:46:00.152Z,28.86
2022-07-25T08:47:00.114Z,28.93
2022-07-25T08:47:57.059Z,28.88
2022-07-25T08:48:57.100Z,28.89
2022-07-25T08:50:00.909Z,28.88
2022-07-25T08:50:58.080Z,28.86
2022-07-25T08:51:57.009Z,28.86
2022-07-25T08:53:16.595Z,28.88
2022-07-25T08:53:57.981Z,28.84
2022-07-25T08:54:56.996Z,28.82
2022-07-25T08:55:56.968Z,28.79
2022-07-25T08:56:56.978Z,28.78
2022-07-25T08:57:56.935Z,28.79
2022-07-25T08:58:56.935Z,28.86
2022-07-25T08:59:56.906Z,28.84
2022-07-25T09:00:56.915Z,28.91
2022-07-25T09:01:56.914Z,29.05
2022-07-25T09:02:56.920Z,29.16
2022-07-25T09:03:56.847Z,29.26
2022-07-25T09:04:56.866Z,29.31
2022-07-25T09:05:59.829Z,29.42
2022-07-25T09:07:00.719Z,29.60
2022-07-25T09:07:56.829Z,29.68
2022-07-25T09:08:56.792Z,29.78
2022-07-25T09:09:56.770Z,29.84
2022-07-25T09:10:56.791Z,29.87
2022-07-25T09:11:56.782Z,29.84
2022-07-25T09:12:56.732Z,29.78
2022-07-25T09:13:56.749Z,29.82
2022-07-25T09:14:56.715Z,29.81
2022-07-25T09:15:56.877Z,29.86
2022-07-25T09:16:56.683Z,29.91
2022-07-25T09:17:56.682Z,29.94
2022-07-25T09:18:56.655Z,30.02
2022-07-25T09:19:56.645Z,30.15
2022-07-25T09:20:56.633Z,30.19
2022-07-25T09:21:56.665Z,30.24
2022-07-25T09:22:56.608Z,30.19
2022-07-25T09:23:56.593Z,30.24
2022-07-25T09:24:56.578Z,30.30
2022-07-25T09:25:59.566Z,30.34
2022-07-25T09:26:59.622Z,30.39
2022-07-25T09:27:56.543Z,30.43
2022-07-25T09:28:56.529Z,30.47
2022-07-25T09:29:56.511Z,30.53
2022-07-25T09:30:56.539Z,30.65
2022-07-25T09:31:56.507Z,30.72
2022-07-25T09:32:56.503Z,30.84
2022-07-25T09:33:56.519Z,30.80
2022-07-25T09:34:56.517Z,30.83
2022-07-25T09:35:56.463Z,30.78
2022-07-25T09:36:56.445Z,30.77
2022-07-25T09:37:56.405Z,30.75
2022-07-25T09:38:56.396Z,30.78
2022-07-25T09:39:56.376Z,30.78
2022-07-25T09:40:56.401Z,30.72
2022-07-25T09:41:56.351Z,30.69
2022-07-25T09:42:56.339Z,30.53
2022-07-25T09:43:56.331Z,30.50
2022-07-25T09:44:56.318Z,30.46
2022-07-25T09:45:59.349Z,30.47
2022-07-25T09:46:59.300Z,30.55
2022-07-25T09:47:56.284Z,30.54
2022-07-25T09:48:56.343Z,30.68
2022-07-25T09:49:56.245Z,30.65
2022-07-25T09:50:56.241Z,30.72
2022-07-25T09:51:56.253Z,30.78
2022-07-25T09:52:56.204Z,30.88
2022-07-25T09:53:56.224Z,31.05
2022-07-25T09:54:56.188Z,31.14
2022-07-25T09:55:56.165Z,31.18
2022-07-25T09:56:56.158Z,31.31
2022-07-25T09:57:56.137Z,31.29
2022-07-25T09:58:56.127Z,31.29
2022-07-25T09:59:56.177Z,31.24
2022-07-25T10:00:56.109Z,31.28
2022-07-25T10:01:56.153Z,31.27
2022-07-25T10:02:56.118Z,31.31
2022-07-25T10:03:56.067Z,31.43
2022-07-25T10:04:56.050Z,31.59
2022-07-25T10:05:59.061Z,31.76
2022-07-25T10:06:59.072Z,31.96
2022-07-25T10:07:56.012Z,32.08
2022-07-25T10:08:56.005Z,32.16
2022-07-25T10:09:55.991Z,32.23
2022-07-25T10:10:55.989Z,32.31
2022-07-25T10:11:55.987Z,32.30
2022-07-25T10:12:55.954Z,32.26
2022-07-25T10:13:56.015Z,32.16
2022-07-25T10:14:55.958Z,32.04
2022-07-25T10:15:55.977Z,31.96
2022-07-25T10:16:55.996Z,31.92
2022-07-25T10:17:56.279Z,31.87
2022-07-25T10:18:55.883Z,31.77
2022-07-25T10:19:58.889Z,31.76
2022-07-25T10:20:55.854Z,31.81
2022-07-25T10:21:55.869Z,31.87
2022-07-25T10:22:57.292Z,31.84
2022-07-25T10:23:55.984Z,31.93
2022-07-25T10:24:55.802Z,32.03
2022-07-25T10:25:58.792Z,32.11
2022-07-25T10:26:58.823Z,32.18
2022-07-25T10:27:55.774Z,32.26
2022-07-25T10:28:55.757Z,32.29
2022-07-25T10:29:55.777Z,32.38
2022-07-25T10:30:55.822Z,32.46
2022-07-25T10:31:55.717Z,32.36
2022-07-25T10:32:55.787Z,32.38
2022-07-25T10:33:55.690Z,32.45
2022-07-25T10:34:55.678Z,32.67
2022-07-25T10:35:55.668Z,32.83
2022-07-25T10:36:55.658Z,32.93
2022-07-25T10:37:55.642Z,33.02
2022-07-25T10:38:55.658Z,33.15
2022-07-25T10:39:55.623Z,33.17
2022-07-25T10:40:55.611Z,33.15
2022-07-25T10:41:55.593Z,33.05
2022-07-25T10:42:55.585Z,33.01
2022-07-25T10:43:55.601Z,33.02
2022-07-25T10:44:55.584Z,33.08
2022-07-25T10:45:58.626Z,33.08
2022-07-25T10:46:58.546Z,32.87
2022-07-25T10:47:55.517Z,32.78
2022-07-25T10:48:55.590Z,32.78
2022-07-25T10:50:15.189Z,32.77
2022-07-25T10:50:57.031Z,32.82
2022-07-25T10:51:55.465Z,32.77
2022-07-25T10:52:55.460Z,32.77
2022-07-25T10:53:55.469Z,32.85
2022-07-25T10:54:55.427Z,32.90
2022-07-25T10:56:05.331Z,32.92
2022-07-25T10:56:56.391Z,32.85
2022-07-25T10:58:16.514Z,32.78
2022-07-25T10:58:56.416Z,32.75
2022-07-25T10:59:55.364Z,32.60
2022-07-25T11:00:55.362Z,32.55
2022-07-25T11:01:55.387Z,32.52
2022-07-25T11:02:55.396Z,32.53
2022-07-25T11:03:55.334Z,32.48
2022-07-25T11:04:55.320Z,32.45
2022-07-25T11:05:58.280Z,32.38
2022-07-25T11:06:58.278Z,32.33
2022-07-25T11:08:19.899Z,32.21
2022-07-25T11:08:56.275Z,32.09
2022-07-25T11:09:55.227Z,32.16
2022-07-25T11:10:55.208Z,32.19
2022-07-25T11:11:55.203Z,32.31
2022-07-25T11:12:55.180Z,32.43
2022-07-25T11:13:55.254Z,32.46
2022-07-25T11:14:55.158Z,32.43
2022-07-25T11:15:55.149Z,32.40
2022-07-25T11:16:55.257Z,32.45
2022-07-25T11:17:55.115Z,32.41
2022-07-25T11:18:55.168Z,32.26
2022-07-25T11:19:55.098Z,32.14
2022-07-25T11:20:55.076Z,32.12
2022-07-25T11:21:55.070Z,32.11
2022-07-25T11:22:55.047Z,32.08
2022-07-25T11:23:55.036Z,32.00
2022-07-25T11:24:55.058Z,31.99
2022-07-25T11:25:58.009Z,32.09
2022-07-25T11:26:58.010Z,32.12
2022-07-25T11:27:54.989Z,32.16
2022-07-25T11:28:54.979Z,32.18
2022-07-25T11:29:54.973Z,32.15
2022-07-25T11:30:55.022Z,32.07
2022-07-25T11:31:55.009Z,31.99
2022-07-25T11:32:54.924Z,31.93
2022-07-25T11:33:54.903Z,31.80
2022-07-25T11:34:54.893Z,31.66
2022-07-25T11:35:54.904Z,31.65
2022-07-25T11:36:54.905Z,31.70
2022-07-25T11:37:54.856Z,31.70
2022-07-25T11:38:54.848Z,31.69
2022-07-25T11:39:56.191Z,31.65
2022-07-25T11:40:54.897Z,31.66
2022-07-25T11:41:54.837Z,31.78
2022-07-25T11:42:54.823Z,31.92
2022-07-25T11:43:54.789Z,32.11
2022-07-25T11:44:54.771Z,32.23
2022-07-25T11:45:57.845Z,32.40
2022-07-25T11:46:57.761Z,32.60
2022-07-25T11:47:54.740Z,32.74
2022-07-25T11:48:54.791Z,32.95
2022-07-25T11:49:54.742Z,32.97
2022-07-25T11:50:54.694Z,33.04
2022-07-25T11:51:54.720Z,33.05
2022-07-25T11:52:54.673Z,33.05
2022-07-25T11:53:54.658Z,33.09
2022-07-25T11:54:54.647Z,33.11
2022-07-25T11:55:54.696Z,33.05
2022-07-25T11:56:54.620Z,32.96
2022-07-25T11:57:54.608Z,32.86
2022-07-25T11:58:54.602Z,32.74
2022-07-25T11:59:54.579Z,32.63
2022-07-25T12:00:54.582Z,32.45
2022-07-25T12:01:54.686Z,32.19
2022-07-25T12:02:54.605Z,31.93
2022-07-25T12:03:54.623Z,31.69
2022-07-25T12:04:54.532Z,31.37
2022-07-25T12:05:57.512Z,31.15
2022-07-25T12:06:57.543Z,31.10
2022-07-25T12:07:54.494Z,31.02
2022-07-25T12:08:54.470Z,31.00
2022-07-25T12:09:54.462Z,31.00
2022-07-25T12:10:54.464Z,30.88
2022-07-25T12:11:54.438Z,30.78
2022-07-25T12:12:54.555Z,30.68
2022-07-25T12:13:54.405Z,30.69
2022-07-25T12:14:54.395Z,30.59
2022-07-25T12:15:54.418Z,30.55
2022-07-25T12:16:54.507Z,30.48
2022-07-25T12:17:54.361Z,30.51
2022-07-25T12:18:54.356Z,30.57
2022-07-25T12:19:54.330Z,30.68
2022-07-25T12:20:54.374Z,30.70
2022-07-25T12:21:54.315Z,30.81
2022-07-25T12:22:54.291Z,30.94
2022-07-25T12:23:54.291Z,31.07
2022-07-25T12:24:54.276Z,31.25
2022-07-25T12:25:57.304Z,31.40
2022-07-25T12:26:57.254Z,31.56
2022-07-25T12:27:54.243Z,31.61
2022-07-25T12:28:54.215Z,31.56
2022-07-25T12:29:54.208Z,31.59
2022-07-25T12:30:56.653Z,31.73
2022-07-25T12:31:54.230Z,31.84
2022-07-25T12:32:54.931Z,31.92
2022-07-25T12:33:54.157Z,31.99
2022-07-25T12:34:54.147Z,32.08
2022-07-25T12:35:54.130Z,32.07
2022-07-25T12:36:54.119Z,32.08
2022-07-25T12:37:54.169Z,32.21
2022-07-25T12:38:54.091Z,32.23
2022-07-25T12:39:54.082Z,32.29
2022-07-25T12:40:54.076Z,32.36
2022-07-25T12:41:54.061Z,32.31
2022-07-25T12:42:54.043Z,32.26
2022-07-25T12:43:54.071Z,32.11
2022-07-25T12:44:54.054Z,31.96
2022-07-25T12:45:57.046Z,31.90
2022-07-25T12:46:57.069Z,31.84
2022-07-25T12:47:53.986Z,31.74
2022-07-25T12:48:54.046Z,31.61
2022-07-25T12:49:53.957Z,31.31
2022-07-25T12:50:53.958Z,31.18
2022-07-25T12:51:58.066Z,31.22